sensor_id;sensor_type;location;lat;lon;timestamp;P1;durP1;ratioP1;P2;durP2;ratioP2
13991;SDS011;7070;53.586;9.692;2022-10-03T00:01:34;0.40;;;0.40;;
13991;SDS011;7070;53.586;9.692;2022-10-03T00:04:21;0.50;;;0.50;;
13991;SDS011;7070;53.586;9.692;2022-10-03T00:07:02;0.50;;;0.50;;
13991;SDS011;7070;53.586;9.692;2022-10-03T00:09:47;0.43;;;0.43;;
13991;SDS011;7070;53.586;9.692;2022-10-03T00:12:34;0.47;;;0.47;;
13991;SDS011;7070;53.586;9.692;2022-10-03T00:15:12;0.50;;;0.50;;
13991;SDS011;7070;53.586;9.692;2022-10-03T00:17:47;0.50;;;0.50;;
13991;SDS011;7070;53.586;9.692;2022-10-03T00:20:42;0.47;;;0.47;;
13991;SDS011;7070;53.586;9.692;2022-10-03T00:23:18;0.50;;;0.50;;
13991;SDS011;7070;53.586;9.692;2022-10-03T00:25:56;0.50;;;0.50;;
13991;SDS011;7070;53.586;9.692;2022-10-03T00:28:54;0.50;;;0.50;;
13991;SDS011;7070;53.586;9.692;2022-10-03T00:31:36;0.50;;;0.50;;
13991;SDS011;7070;53.586;9.692;2022-10-03T00:34:10;0.50;;;0.50;;
13991;SDS011;7070;53.586;9.692;2022-10-03T00:36:47;0.40;;;0.40;;
13991;SDS011;7070;53.586;9.692;2022-10-03T00:39:35;0.50;;;0.50;;
13991;SDS011;7070;53.586;9.692;2022-10-03T00:48:07;0.50;;;0.50;;
13991;SDS011;7070;53.586;9.692;2022-10-03T00:50:54;0.50;;;0.50;;
13991;SDS011;7070;53.586;9.692;2022-10-03T00:53:39;0.50;;;0.50;;
13991;SDS011;7070;53.586;9.692;2022-10-03T00:56:23;0.50;;;0.50;;
13991;SDS011;7070;53.586;9.692;2022-10-03T00:59:07;0.50;;;0.50;;
13991;SDS011;7070;53.586;9.692;2022-10-03T01:01:43;0.40;;;0.40;;
13991;SDS011;7070;53.586;9.692;2022-10-03T01:04:15;0.50;;;0.50;;
13991;SDS011;7070;53.586;9.692;2022-10-03T01:06:58;0.50;;;0.50;;
13991;SDS011;7070;53.586;9.692;2022-10-03T01:09:37;0.50;;;0.50;;
13991;SDS011;7070;53.586;9.692;2022-10-03T01:12:26;0.50;;;0.50;;
13991;SDS011;7070;53.586;9.692;2022-10-03T01:15:09;0.50;;;0.50;;
13991;SDS011;7070;53.586;9.692;2022-10-03T01:17:47;0.50;;;0.50;;
13991;SDS011;7070;53.586;9.692;2022-10-03T01:20:25;0.50;;;0.50;;
13991;SDS011;7070;53.586;9.692;2022-10-03T01:23:14;0.40;;;0.40;;
13991;SDS011;7070;53.586;9.692;2022-10-03T01:26:23;0.40;;;0.40;;
13991;SDS011;7070;53.586;9.692;2022-10-03T01:29:05;0.40;;;0.40;;
13991;SDS011;7070;53.586;9.692;2022-10-03T01:31:54;0.50;;;0.50;;
13991;SDS011;7070;53.586;9.692;2022-10-03T01:34:27;0.50;;;0.50;;
13991;SDS011;7070;53.586;9.692;2022-10-03T01:37:03;0.40;;;0.40;;
13991;SDS011;7070;53.586;9.692;2022-10-03T01:39:36;0.47;;;0.47;;
13991;SDS011;7070;53.586;9.692;2022-10-03T01:42:09;0.50;;;0.50;;
13991;SDS011;7070;53.586;9.692;2022-10-03T01:44:47;0.40;;;0.40;;
13991;SDS011;7070;53.586;9.692;2022-10-03T01:47:27;0.50;;;0.50;;
13991;SDS011;7070;53.586;9.692;2022-10-03T01:50:01;0.43;;;0.43;;
13991;SDS011;7070;53.586;9.692;2022-10-03T01:52:38;0.50;;;0.50;;
13991;SDS011;7070;53.586;9.692;2022-10-03T01:55:14;0.50;;;0.50;;
13991;SDS011;7070;53.586;9.692;2022-10-03T01:57:52;0.50;;;0.50;;
13991;SDS011;7070;53.586;9.692;2022-10-03T02:00:27;0.50;;;0.50;;
13991;SDS011;7070;53.586;9.692;2022-10-03T02:02:59;0.50;;;0.50;;
13991;SDS011;7070;53.586;9.692;2022-10-03T02:05:35;0.40;;;0.40;;
13991;SDS011;7070;53.586;9.692;2022-10-03T02:08:09;0.50;;;0.50;;
13991;SDS011;7070;53.586;9.692;2022-10-03T02:10:49;0.50;;;0.50;;
13991;SDS011;7070;53.586;9.692;2022-10-03T02:13:21;0.50;;;0.50;;
13991;SDS011;7070;53.586;9.692;2022-10-03T02:15:56;0.50;;;0.50;;
13991;SDS011;7070;53.586;9.692;2022-10-03T02:18:33;0.60;;;0.60;;
13991;SDS011;7070;53.586;9.692;2022-10-03T02:21:07;0.50;;;0.50;;
13991;SDS011;7070;53.586;9.692;2022-10-03T02:23:40;0.47;;;0.47;;
13991;SDS011;7070;53.586;9.692;2022-10-03T02:29:29;0.50;;;0.50;;
13991;SDS011;7070;53.586;9.692;2022-10-03T02:32:27;0.40;;;0.40;;
13991;SDS011;7070;53.586;9.692;2022-10-03T02:35:24;0.43;;;0.43;;
13991;SDS011;7070;53.586;9.692;2022-10-03T02:38:08;0.50;;;0.50;;
13991;SDS011;7070;53.586;9.692;2022-10-03T02:40:51;0.50;;;0.50;;
13991;SDS011;7070;53.586;9.692;2022-10-03T02:43:54;0.50;;;0.50;;
13991;SDS011;7070;53.586;9.692;2022-10-03T02:47:03;0.50;;;0.50;;
13991;SDS011;7070;53.586;9.692;2022-10-03T02:49:56;0.50;;;0.50;;
13991;SDS011;7070;53.586;9.692;2022-10-03T02:52:53;0.50;;;0.50;;
13991;SDS011;7070;53.586;9.692;2022-10-03T02:55:56;0.50;;;0.50;;
13991;SDS011;7070;53.586;9.692;2022-10-03T02:58:45;0.50;;;0.50;;
13991;SDS011;7070;53.586;9.692;2022-10-03T03:01:33;0.47;;;0.47;;
13991;SDS011;7070;53.586;9.692;2022-10-03T03:04:17;0.43;;;0.43;;
13991;SDS011;7070;53.586;9.692;2022-10-03T03:07:13;0.50;;;0.50;;
13991;SDS011;7070;53.586;9.692;2022-10-03T03:10:07;0.50;;;0.50;;
13991;SDS011;7070;53.586;9.692;2022-10-03T03:16:11;0.60;;;0.60;;
13991;SDS011;7070;53.586;9.692;2022-10-03T03:19:11;0.50;;;0.50;;
13991;SDS011;7070;53.586;9.692;2022-10-03T03:21:51;0.50;;;0.50;;
13991;SDS011;7070;53.586;9.692;2022-10-03T03:24:30;0.50;;;0.50;;
13991;SDS011;7070;53.586;9.692;2022-10-03T03:27:29;0.50;;;0.50;;
13991;SDS011;7070;53.586;9.692;2022-10-03T03:30:12;0.50;;;0.50;;
13991;SDS011;7070;53.586;9.692;2022-10-03T03:32:46;0.60;;;0.60;;
13991;SDS011;7070;53.586;9.692;2022-10-03T03:35:26;0.60;;;0.60;;
13991;SDS011;7070;53.586;9.692;2022-10-03T03:38:02;0.70;;;0.70;;
13991;SDS011;7070;53.586;9.692;2022-10-03T03:40:44;0.50;;;0.50;;
13991;SDS011;7070;53.586;9.692;2022-10-03T03:43:25;0.50;;;0.50;;
13991;SDS011;7070;53.586;9.692;2022-10-03T03:46:12;0.57;;;0.57;;
13991;SDS011;7070;53.586;9.692;2022-10-03T03:51:40;0.50;;;0.50;;
13991;SDS011;7070;53.586;9.692;2022-10-03T03:54:19;0.50;;;0.50;;
13991;SDS011;7070;53.586;9.692;2022-10-03T03:57:03;0.50;;;0.50;;
13991;SDS011;7070;53.586;9.692;2022-10-03T03:59:50;0.50;;;0.50;;
13991;SDS011;7070;53.586;9.692;2022-10-03T04:02:41;0.47;;;0.47;;
13991;SDS011;7070;53.586;9.692;2022-10-03T04:05:30;0.40;;;0.40;;
13991;SDS011;7070;53.586;9.692;2022-10-03T04:08:16;0.50;;;0.50;;
13991;SDS011;7070;53.586;9.692;2022-10-03T04:10:58;0.50;;;0.50;;
13991;SDS011;7070;53.586;9.692;2022-10-03T04:13:41;0.50;;;0.50;;
13991;SDS011;7070;53.586;9.692;2022-10-03T04:16:29;0.50;;;0.50;;
13991;SDS011;7070;53.586;9.692;2022-10-03T04:19:23;0.50;;;0.50;;
13991;SDS011;7070;53.586;9.692;2022-10-03T04:22:03;0.40;;;0.40;;
13991;SDS011;7070;53.586;9.692;2022-10-03T04:24:52;0.50;;;0.50;;
13991;SDS011;7070;53.586;9.692;2022-10-03T04:27:55;0.50;;;0.50;;
13991;SDS011;7070;53.586;9.692;2022-10-03T04:30:51;0.50;;;0.50;;
13991;SDS011;7070;53.586;9.692;2022-10-03T04:33:30;0.60;;;0.60;;
13991;SDS011;7070;53.586;9.692;2022-10-03T04:38:59;0.50;;;0.50;;
13991;SDS011;7070;53.586;9.692;2022-10-03T04:41:35;0.50;;;0.50;;
13991;SDS011;7070;53.586;9.692;2022-10-03T04:44:08;0.50;;;0.50;;
13991;SDS011;7070;53.586;9.692;2022-10-03T04:46:46;0.50;;;0.50;;
13991;SDS011;7070;53.586;9.692;2022-10-03T04:49:22;0.50;;;0.50;;
13991;SDS011;7070;53.586;9.692;2022-10-03T04:51:56;0.60;;;0.60;;
13991;SDS011;7070;53.586;9.692;2022-10-03T04:54:28;0.60;;;0.60;;
13991;SDS011;7070;53.586;9.692;2022-10-03T04:57:09;0.50;;;0.50;;
13991;SDS011;7070;53.586;9.692;2022-10-03T04:59:47;0.50;;;0.50;;
13991;SDS011;7070;53.586;9.692;2022-10-03T05:02:33;0.47;;;0.47;;
13991;SDS011;7070;53.586;9.692;2022-10-03T05:05:20;0.50;;;0.50;;
13991;SDS011;7070;53.586;9.692;2022-10-03T05:08:11;0.50;;;0.50;;
13991;SDS011;7070;53.586;9.692;2022-10-03T05:11:00;0.60;;;0.60;;
13991;SDS011;7070;53.586;9.692;2022-10-03T05:13:35;0.50;;;0.50;;
13991;SDS011;7070;53.586;9.692;2022-10-03T05:16:14;0.60;;;0.60;;
13991;SDS011;7070;53.586;9.692;2022-10-03T05:18:52;0.60;;;0.60;;
13991;SDS011;7070;53.586;9.692;2022-10-03T05:21:29;0.53;;;0.53;;
13991;SDS011;7070;53.586;9.692;2022-10-03T05:24:03;0.50;;;0.50;;
13991;SDS011;7070;53.586;9.692;2022-10-03T05:26:42;0.60;;;0.60;;
13991;SDS011;7070;53.586;9.692;2022-10-03T05:29:15;0.50;;;0.50;;
13991;SDS011;7070;53.586;9.692;2022-10-03T05:31:52;0.50;;;0.50;;
13991;SDS011;7070;53.586;9.692;2022-10-03T05:34:33;0.60;;;0.60;;
13991;SDS011;7070;53.586;9.692;2022-10-03T05:37:16;0.50;;;0.50;;
13991;SDS011;7070;53.586;9.692;2022-10-03T05:39:56;0.50;;;0.50;;
13991;SDS011;7070;53.586;9.692;2022-10-03T05:42:33;0.50;;;0.50;;
13991;SDS011;7070;53.586;9.692;2022-10-03T05:45:03;0.50;;;0.50;;
13991;SDS011;7070;53.586;9.692;2022-10-03T05:47:47;0.60;;;0.60;;
13991;SDS011;7070;53.586;9.692;2022-10-03T05:56:39;0.50;;;0.50;;
13991;SDS011;7070;53.586;9.692;2022-10-03T05:59:34;0.50;;;0.50;;
13991;SDS011;7070;53.586;9.692;2022-10-03T06:05:28;0.60;;;0.60;;
13991;SDS011;7070;53.586;9.692;2022-10-03T06:11:03;0.53;;;0.53;;
13991;SDS011;7070;53.586;9.692;2022-10-03T06:13:43;0.60;;;0.60;;
13991;SDS011;7070;53.586;9.692;2022-10-03T06:16:30;0.50;;;0.50;;
13991;SDS011;7070;53.586;9.692;2022-10-03T06:19:06;0.50;;;0.50;;
13991;SDS011;7070;53.586;9.692;2022-10-03T06:21:49;0.60;;;0.60;;
13991;SDS011;7070;53.586;9.692;2022-10-03T06:25:12;0.60;;;0.60;;
13991;SDS011;7070;53.586;9.692;2022-10-03T06:28:31;0.40;;;0.40;;
13991;SDS011;7070;53.586;9.692;2022-10-03T06:31:26;0.60;;;0.60;;
13991;SDS011;7070;53.586;9.692;2022-10-03T06:34:34;0.50;;;0.50;;
13991;SDS011;7070;53.586;9.692;2022-10-03T06:40:46;0.60;;;0.60;;
13991;SDS011;7070;53.586;9.692;2022-10-03T06:43:44;0.60;;;0.60;;
13991;SDS011;7070;53.586;9.692;2022-10-03T06:49:34;0.50;;;0.50;;
13991;SDS011;7070;53.586;9.692;2022-10-03T06:52:31;0.50;;;0.50;;
13991;SDS011;7070;53.586;9.692;2022-10-03T06:55:34;0.50;;;0.50;;
13991;SDS011;7070;53.586;9.692;2022-10-03T06:58:33;0.50;;;0.50;;
13991;SDS011;7070;53.586;9.692;2022-10-03T07:04:31;0.30;;;0.30;;
13991;SDS011;7070;53.586;9.692;2022-10-03T07:07:28;0.50;;;0.50;;
13991;SDS011;7070;53.586;9.692;2022-10-03T07:10:20;0.50;;;0.50;;
13991;SDS011;7070;53.586;9.692;2022-10-03T07:16:18;0.40;;;0.40;;
13991;SDS011;7070;53.586;9.692;2022-10-03T07:25:11;0.50;;;0.50;;
13991;SDS011;7070;53.586;9.692;2022-10-03T07:31:24;0.50;;;0.50;;
13991;SDS011;7070;53.586;9.692;2022-10-03T07:37:01;0.40;;;0.40;;
13991;SDS011;7070;53.586;9.692;2022-10-03T07:40:03;0.50;;;0.50;;
13991;SDS011;7070;53.586;9.692;2022-10-03T07:43:06;0.40;;;0.40;;
13991;SDS011;7070;53.586;9.692;2022-10-03T07:46:09;0.50;;;0.50;;
13991;SDS011;7070;53.586;9.692;2022-10-03T07:49:09;0.50;;;0.50;;
13991;SDS011;7070;53.586;9.692;2022-10-03T07:51:50;0.50;;;0.50;;
13991;SDS011;7070;53.586;9.692;2022-10-03T07:54:36;0.50;;;0.50;;
13991;SDS011;7070;53.586;9.692;2022-10-03T07:57:31;0.50;;;0.50;;
13991;SDS011;7070;53.586;9.692;2022-10-03T08:00:14;0.50;;;0.50;;
13991;SDS011;7070;53.586;9.692;2022-10-03T08:06:09;0.50;;;0.50;;
13991;SDS011;7070;53.586;9.692;2022-10-03T08:14:55;0.40;;;0.40;;
13991;SDS011;7070;53.586;9.692;2022-10-03T08:17:41;0.40;;;0.40;;
13991;SDS011;7070;53.586;9.692;2022-10-03T08:20:42;0.40;;;0.40;;
13991;SDS011;7070;53.586;9.692;2022-10-03T08:26:16;0.40;;;0.40;;
13991;SDS011;7070;53.586;9.692;2022-10-03T08:28:53;0.40;;;0.40;;
13991;SDS011;7070;53.586;9.692;2022-10-03T08:37:52;0.30;;;0.30;;
13991;SDS011;7070;53.586;9.692;2022-10-03T08:47:08;0.33;;;0.33;;
13991;SDS011;7070;53.586;9.692;2022-10-03T08:56:03;0.40;;;0.40;;
13991;SDS011;7070;53.586;9.692;2022-10-03T09:05:16;0.40;;;0.40;;
13991;SDS011;7070;53.586;9.692;2022-10-03T09:08:36;0.30;;;0.30;;
13991;SDS011;7070;53.586;9.692;2022-10-03T09:11:24;0.40;;;0.40;;
13991;SDS011;7070;53.586;9.692;2022-10-03T09:14:29;0.40;;;0.40;;
13991;SDS011;7070;53.586;9.692;2022-10-03T09:20:18;0.40;;;0.40;;
13991;SDS011;7070;53.586;9.692;2022-10-03T09:26:41;0.30;;;0.30;;
13991;SDS011;7070;53.586;9.692;2022-10-03T09:29:32;0.40;;;0.40;;
13991;SDS011;7070;53.586;9.692;2022-10-03T09:35:47;0.33;;;0.33;;
13991;SDS011;7070;53.586;9.692;2022-10-03T09:41:33;0.40;;;0.40;;
13991;SDS011;7070;53.586;9.692;2022-10-03T09:44:39;0.30;;;0.30;;
13991;SDS011;7070;53.586;9.692;2022-10-03T09:53:42;0.37;;;0.37;;
13991;SDS011;7070;53.586;9.692;2022-10-03T09:56:46;0.40;;;0.40;;
13991;SDS011;7070;53.586;9.692;2022-10-03T10:05:33;0.30;;;0.30;;
13991;SDS011;7070;53.586;9.692;2022-10-03T10:11:32;0.30;;;0.30;;
13991;SDS011;7070;53.586;9.692;2022-10-03T10:14:23;0.40;;;0.40;;
13991;SDS011;7070;53.586;9.692;2022-10-03T10:20:26;0.40;;;0.40;;
13991;SDS011;7070;53.586;9.692;2022-10-03T10:23:19;0.40;;;0.40;;
13991;SDS011;7070;53.586;9.692;2022-10-03T10:32:31;0.37;;;0.37;;
13991;SDS011;7070;53.586;9.692;2022-10-03T10:41:49;0.30;;;0.30;;
13991;SDS011;7070;53.586;9.692;2022-10-03T10:44:44;0.30;;;0.30;;
13991;SDS011;7070;53.586;9.692;2022-10-03T10:50:57;0.50;;;0.50;;
13991;SDS011;7070;53.586;9.692;2022-10-03T10:53:59;0.40;;;0.40;;
13991;SDS011;7070;53.586;9.692;2022-10-03T11:03:20;0.40;;;0.40;;
13991;SDS011;7070;53.586;9.692;2022-10-03T11:12:38;0.40;;;0.40;;
13991;SDS011;7070;53.586;9.692;2022-10-03T11:15:47;0.40;;;0.40;;
13991;SDS011;7070;53.586;9.692;2022-10-03T11:18:45;0.40;;;0.40;;
13991;SDS011;7070;53.586;9.692;2022-10-03T11:37:32;0.40;;;0.40;;
13991;SDS011;7070;53.586;9.692;2022-10-03T11:43:02;0.40;;;0.40;;
13991;SDS011;7070;53.586;9.692;2022-10-03T11:45:48;0.40;;;0.40;;
13991;SDS011;7070;53.586;9.692;2022-10-03T11:48:23;0.40;;;0.40;;
13991;SDS011;7070;53.586;9.692;2022-10-03T11:51:01;0.40;;;0.40;;
13991;SDS011;7070;53.586;9.692;2022-10-03T11:53:36;0.30;;;0.30;;
13991;SDS011;7070;53.586;9.692;2022-10-03T11:56:13;0.40;;;0.40;;
13991;SDS011;7070;53.586;9.692;2022-10-03T12:01:45;0.30;;;0.30;;
13991;SDS011;7070;53.586;9.692;2022-10-03T12:04:27;0.40;;;0.40;;
13991;SDS011;7070;53.586;9.692;2022-10-03T12:07:00;0.30;;;0.30;;
13991;SDS011;7070;53.586;9.692;2022-10-03T12:09:58;0.40;;;0.40;;
13991;SDS011;7070;53.586;9.692;2022-10-03T12:12:35;0.40;;;0.40;;
13991;SDS011;7070;53.586;9.692;2022-10-03T12:15:14;0.30;;;0.30;;
13991;SDS011;7070;53.586;9.692;2022-10-03T12:17:51;0.40;;;0.40;;
13991;SDS011;7070;53.586;9.692;2022-10-03T12:20:27;0.30;;;0.30;;
13991;SDS011;7070;53.586;9.692;2022-10-03T12:22:59;0.30;;;0.30;;
13991;SDS011;7070;53.586;9.692;2022-10-03T12:25:33;0.40;;;0.40;;
13991;SDS011;7070;53.586;9.692;2022-10-03T12:28:08;0.40;;;0.40;;
13991;SDS011;7070;53.586;9.692;2022-10-03T12:30:44;0.30;;;0.30;;
13991;SDS011;7070;53.586;9.692;2022-10-03T12:33:18;0.40;;;0.40;;
13991;SDS011;7070;53.586;9.692;2022-10-03T12:36:09;0.40;;;0.40;;
13991;SDS011;7070;53.586;9.692;2022-10-03T12:38:42;0.40;;;0.40;;
13991;SDS011;7070;53.586;9.692;2022-10-03T12:41:28;0.30;;;0.30;;
13991;SDS011;7070;53.586;9.692;2022-10-03T12:44:19;0.27;;;0.27;;
13991;SDS011;7070;53.586;9.692;2022-10-03T12:46:59;0.37;;;0.37;;
13991;SDS011;7070;53.586;9.692;2022-10-03T12:49:45;0.40;;;0.40;;
13991;SDS011;7070;53.586;9.692;2022-10-03T12:52:20;0.40;;;0.40;;
13991;SDS011;7070;53.586;9.692;2022-10-03T12:54:55;0.30;;;0.30;;
13991;SDS011;7070;53.586;9.692;2022-10-03T12:57:47;0.40;;;0.40;;
13991;SDS011;7070;53.586;9.692;2022-10-03T13:00:22;0.40;;;0.40;;
13991;SDS011;7070;53.586;9.692;2022-10-03T13:05:49;0.30;;;0.30;;
13991;SDS011;7070;53.586;9.692;2022-10-03T13:08:40;0.30;;;0.30;;
13991;SDS011;7070;53.586;9.692;2022-10-03T13:11:20;0.33;;;0.33;;
13991;SDS011;7070;53.586;9.692;2022-10-03T13:16:46;0.30;;;0.30;;
13991;SDS011;7070;53.586;9.692;2022-10-03T13:19:24;0.40;;;0.40;;
13991;SDS011;7070;53.586;9.692;2022-10-03T13:21:55;0.40;;;0.40;;
13991;SDS011;7070;53.586;9.692;2022-10-03T13:24:31;0.40;;;0.40;;
13991;SDS011;7070;53.586;9.692;2022-10-03T13:27:06;0.40;;;0.40;;
13991;SDS011;7070;53.586;9.692;2022-10-03T13:29:44;0.40;;;0.40;;
13991;SDS011;7070;53.586;9.692;2022-10-03T13:32:18;0.30;;;0.30;;
13991;SDS011;7070;53.586;9.692;2022-10-03T13:35:00;0.30;;;0.30;;
13991;SDS011;7070;53.586;9.692;2022-10-03T13:40:39;0.30;;;0.30;;
13991;SDS011;7070;53.586;9.692;2022-10-03T13:43:11;0.40;;;0.40;;
13991;SDS011;7070;53.586;9.692;2022-10-03T13:45:43;0.40;;;0.40;;
13991;SDS011;7070;53.586;9.692;2022-10-03T13:48:15;0.30;;;0.30;;
13991;SDS011;7070;53.586;9.692;2022-10-03T13:50:47;0.40;;;0.40;;
13991;SDS011;7070;53.586;9.692;2022-10-03T13:53:25;0.40;;;0.40;;
13991;SDS011;7070;53.586;9.692;2022-10-03T13:56:10;0.40;;;0.40;;
13991;SDS011;7070;53.586;9.692;2022-10-03T13:58:42;0.30;;;0.30;;
13991;SDS011;7070;53.586;9.692;2022-10-03T14:04:14;0.30;;;0.30;;
13991;SDS011;7070;53.586;9.692;2022-10-03T14:07:06;0.40;;;0.40;;
13991;SDS011;7070;53.586;9.692;2022-10-03T14:09:46;0.30;;;0.30;;
13991;SDS011;7070;53.586;9.692;2022-10-03T14:12:27;0.30;;;0.30;;
13991;SDS011;7070;53.586;9.692;2022-10-03T14:15:25;0.33;;;0.33;;
13991;SDS011;7070;53.586;9.692;2022-10-03T14:18:03;0.30;;;0.30;;
13991;SDS011;7070;53.586;9.692;2022-10-03T14:20:40;0.30;;;0.30;;
13991;SDS011;7070;53.586;9.692;2022-10-03T14:23:40;0.20;;;0.20;;
13991;SDS011;7070;53.586;9.692;2022-10-03T14:26:14;0.50;;;0.50;;
13991;SDS011;7070;53.586;9.692;2022-10-03T14:28:46;0.40;;;0.40;;
13991;SDS011;7070;53.586;9.692;2022-10-03T14:31:18;0.30;;;0.30;;
13991;SDS011;7070;53.586;9.692;2022-10-03T14:33:52;0.40;;;0.40;;
13991;SDS011;7070;53.586;9.692;2022-10-03T14:36:31;0.30;;;0.30;;
13991;SDS011;7070;53.586;9.692;2022-10-03T14:39:07;0.40;;;0.40;;
13991;SDS011;7070;53.586;9.692;2022-10-03T14:41:48;0.37;;;0.37;;
13991;SDS011;7070;53.586;9.692;2022-10-03T14:44:46;0.30;;;0.30;;
13991;SDS011;7070;53.586;9.692;2022-10-03T14:47:18;0.33;;;0.33;;
13991;SDS011;7070;53.586;9.692;2022-10-03T14:49:46;0.40;;;0.40;;
13991;SDS011;7070;53.586;9.692;2022-10-03T14:52:19;0.40;;;0.40;;
13991;SDS011;7070;53.586;9.692;2022-10-03T14:54:53;0.30;;;0.30;;
13991;SDS011;7070;53.586;9.692;2022-10-03T14:57:29;0.30;;;0.30;;
13991;SDS011;7070;53.586;9.692;2022-10-03T14:59:58;0.30;;;0.30;;
13991;SDS011;7070;53.586;9.692;2022-10-03T15:02:26;0.30;;;0.30;;
13991;SDS011;7070;53.586;9.692;2022-10-03T15:04:56;0.40;;;0.40;;
13991;SDS011;7070;53.586;9.692;2022-10-03T15:07:34;0.40;;;0.40;;
13991;SDS011;7070;53.586;9.692;2022-10-03T15:10:05;0.30;;;0.30;;
13991;SDS011;7070;53.586;9.692;2022-10-03T15:12:35;0.40;;;0.40;;
13991;SDS011;7070;53.586;9.692;2022-10-03T15:15:07;0.37;;;0.37;;
13991;SDS011;7070;53.586;9.692;2022-10-03T15:17:42;0.30;;;0.30;;
13991;SDS011;7070;53.586;9.692;2022-10-03T15:20:11;0.30;;;0.30;;
13991;SDS011;7070;53.586;9.692;2022-10-03T15:22:45;0.30;;;0.30;;
13991;SDS011;7070;53.586;9.692;2022-10-03T15:25:15;0.30;;;0.30;;
13991;SDS011;7070;53.586;9.692;2022-10-03T15:27:44;0.40;;;0.40;;
13991;SDS011;7070;53.586;9.692;2022-10-03T15:30:18;0.40;;;0.40;;
13991;SDS011;7070;53.586;9.692;2022-10-03T15:32:47;0.33;;;0.33;;
13991;SDS011;7070;53.586;9.692;2022-10-03T15:35:15;0.30;;;0.30;;
13991;SDS011;7070;53.586;9.692;2022-10-03T15:37:46;0.40;;;0.40;;
13991;SDS011;7070;53.586;9.692;2022-10-03T15:40:21;0.40;;;0.40;;
13991;SDS011;7070;53.586;9.692;2022-10-03T15:43:00;0.40;;;0.40;;
13991;SDS011;7070;53.586;9.692;2022-10-03T15:45:31;0.40;;;0.40;;
13991;SDS011;7070;53.586;9.692;2022-10-03T15:48:00;0.30;;;0.30;;
13991;SDS011;7070;53.586;9.692;2022-10-03T15:50:32;0.30;;;0.30;;
13991;SDS011;7070;53.586;9.692;2022-10-03T15:53:06;0.30;;;0.30;;
13991;SDS011;7070;53.586;9.692;2022-10-03T15:55:39;0.37;;;0.37;;
13991;SDS011;7070;53.586;9.692;2022-10-03T15:58:13;0.30;;;0.30;;
13991;SDS011;7070;53.586;9.692;2022-10-03T16:00:46;0.30;;;0.30;;
13991;SDS011;7070;53.586;9.692;2022-10-03T16:03:21;0.30;;;0.30;;
13991;SDS011;7070;53.586;9.692;2022-10-03T16:05:55;0.33;;;0.33;;
13991;SDS011;7070;53.586;9.692;2022-10-03T16:08:29;0.30;;;0.30;;
13991;SDS011;7070;53.586;9.692;2022-10-03T16:11:03;0.40;;;0.40;;
13991;SDS011;7070;53.586;9.692;2022-10-03T16:13:34;0.30;;;0.30;;
13991;SDS011;7070;53.586;9.692;2022-10-03T16:16:11;0.30;;;0.30;;
13991;SDS011;7070;53.586;9.692;2022-10-03T16:18:48;0.30;;;0.30;;
13991;SDS011;7070;53.586;9.692;2022-10-03T16:21:24;0.40;;;0.40;;
13991;SDS011;7070;53.586;9.692;2022-10-03T16:24:14;0.50;;;0.50;;
13991;SDS011;7070;53.586;9.692;2022-10-03T16:26:54;0.30;;;0.30;;
13991;SDS011;7070;53.586;9.692;2022-10-03T16:29:25;0.40;;;0.40;;
13991;SDS011;7070;53.586;9.692;2022-10-03T16:31:58;0.30;;;0.30;;
13991;SDS011;7070;53.586;9.692;2022-10-03T16:34:29;0.40;;;0.40;;
13991;SDS011;7070;53.586;9.692;2022-10-03T16:36:57;0.40;;;0.40;;
13991;SDS011;7070;53.586;9.692;2022-10-03T16:39:27;0.40;;;0.40;;
13991;SDS011;7070;53.586;9.692;2022-10-03T16:41:57;0.40;;;0.40;;
13991;SDS011;7070;53.586;9.692;2022-10-03T16:44:35;0.30;;;0.30;;
13991;SDS011;7070;53.586;9.692;2022-10-03T16:47:05;0.40;;;0.40;;
13991;SDS011;7070;53.586;9.692;2022-10-03T16:49:35;0.40;;;0.40;;
13991;SDS011;7070;53.586;9.692;2022-10-03T16:52:23;0.40;;;0.40;;
13991;SDS011;7070;53.586;9.692;2022-10-03T16:54:59;0.40;;;0.40;;
13991;SDS011;7070;53.586;9.692;2022-10-03T16:57:30;0.37;;;0.37;;
13991;SDS011;7070;53.586;9.692;2022-10-03T17:00:05;0.40;;;0.40;;
13991;SDS011;7070;53.586;9.692;2022-10-03T17:02:42;0.40;;;0.40;;
13991;SDS011;7070;53.586;9.692;2022-10-03T17:05:11;0.40;;;0.40;;
13991;SDS011;7070;53.586;9.692;2022-10-03T17:07:39;0.40;;;0.40;;
13991;SDS011;7070;53.586;9.692;2022-10-03T17:10:24;0.47;;;0.47;;
13991;SDS011;7070;53.586;9.692;2022-10-03T17:12:55;0.43;;;0.43;;
13991;SDS011;7070;53.586;9.692;2022-10-03T17:15:26;0.40;;;0.40;;
13991;SDS011;7070;53.586;9.692;2022-10-03T17:17:55;0.40;;;0.40;;
13991;SDS011;7070;53.586;9.692;2022-10-03T17:20:32;0.40;;;0.40;;
13991;SDS011;7070;53.586;9.692;2022-10-03T17:23:06;0.40;;;0.40;;
13991;SDS011;7070;53.586;9.692;2022-10-03T17:25:42;0.40;;;0.40;;
13991;SDS011;7070;53.586;9.692;2022-10-03T17:28:19;0.40;;;0.40;;
13991;SDS011;7070;53.586;9.692;2022-10-03T17:30:54;0.40;;;0.40;;
13991;SDS011;7070;53.586;9.692;2022-10-03T17:33:28;0.40;;;0.40;;
13991;SDS011;7070;53.586;9.692;2022-10-03T17:36:01;0.37;;;0.37;;
13991;SDS011;7070;53.586;9.692;2022-10-03T17:38:51;0.40;;;0.40;;
13991;SDS011;7070;53.586;9.692;2022-10-03T17:41:26;0.43;;;0.43;;
13991;SDS011;7070;53.586;9.692;2022-10-03T17:44:10;0.40;;;0.40;;
13991;SDS011;7070;53.586;9.692;2022-10-03T17:46:45;0.43;;;0.43;;
13991;SDS011;7070;53.586;9.692;2022-10-03T17:49:25;0.40;;;0.40;;
13991;SDS011;7070;53.586;9.692;2022-10-03T17:52:09;0.40;;;0.40;;
13991;SDS011;7070;53.586;9.692;2022-10-03T17:54:40;0.50;;;0.50;;
13991;SDS011;7070;53.586;9.692;2022-10-03T17:57:14;0.50;;;0.50;;
13991;SDS011;7070;53.586;9.692;2022-10-03T17:59:49;0.40;;;0.40;;
13991;SDS011;7070;53.586;9.692;2022-10-03T18:02:23;0.40;;;0.40;;
13991;SDS011;7070;53.586;9.692;2022-10-03T18:04:58;0.40;;;0.40;;
13991;SDS011;7070;53.586;9.692;2022-10-03T18:07:33;0.50;;;0.50;;
13991;SDS011;7070;53.586;9.692;2022-10-03T18:10:01;0.40;;;0.40;;
13991;SDS011;7070;53.586;9.692;2022-10-03T18:12:32;0.47;;;0.47;;
13991;SDS011;7070;53.586;9.692;2022-10-03T18:15:14;0.40;;;0.40;;
13991;SDS011;7070;53.586;9.692;2022-10-03T18:18:29;0.40;;;0.40;;
13991;SDS011;7070;53.586;9.692;2022-10-03T18:21:28;0.40;;;0.40;;
13991;SDS011;7070;53.586;9.692;2022-10-03T18:24:10;0.50;;;0.50;;
13991;SDS011;7070;53.586;9.692;2022-10-03T18:26:47;0.40;;;0.40;;
13991;SDS011;7070;53.586;9.692;2022-10-03T18:29:26;0.40;;;0.40;;
13991;SDS011;7070;53.586;9.692;2022-10-03T18:31:58;0.40;;;0.40;;
13991;SDS011;7070;53.586;9.692;2022-10-03T18:34:37;0.50;;;0.50;;
13991;SDS011;7070;53.586;9.692;2022-10-03T18:37:16;0.40;;;0.40;;
13991;SDS011;7070;53.586;9.692;2022-10-03T18:40:24;0.40;;;0.40;;
13991;SDS011;7070;53.586;9.692;2022-10-03T18:42:53;0.50;;;0.50;;
13991;SDS011;7070;53.586;9.692;2022-10-03T18:45:22;0.40;;;0.40;;
13991;SDS011;7070;53.586;9.692;2022-10-03T18:47:54;0.50;;;0.50;;
13991;SDS011;7070;53.586;9.692;2022-10-03T18:50:30;0.50;;;0.50;;
13991;SDS011;7070;53.586;9.692;2022-10-03T18:53:12;0.40;;;0.40;;
13991;SDS011;7070;53.586;9.692;2022-10-03T18:55:43;0.50;;;0.50;;
13991;SDS011;7070;53.586;9.692;2022-10-03T18:58:16;0.50;;;0.50;;
13991;SDS011;7070;53.586;9.692;2022-10-03T19:00:49;0.50;;;0.50;;
13991;SDS011;7070;53.586;9.692;2022-10-03T19:03:21;0.50;;;0.50;;
13991;SDS011;7070;53.586;9.692;2022-10-03T19:05:54;0.40;;;0.40;;
13991;SDS011;7070;53.586;9.692;2022-10-03T19:08:28;0.50;;;0.50;;
13991;SDS011;7070;53.586;9.692;2022-10-03T19:11:00;0.50;;;0.50;;
13991;SDS011;7070;53.586;9.692;2022-10-03T19:13:39;0.50;;;0.50;;
13991;SDS011;7070;53.586;9.692;2022-10-03T19:19:12;0.40;;;0.40;;
13991;SDS011;7070;53.586;9.692;2022-10-03T19:21:49;0.40;;;0.40;;
13991;SDS011;7070;53.586;9.692;2022-10-03T19:24:17;0.50;;;0.50;;
13991;SDS011;7070;53.586;9.692;2022-10-03T19:26:47;0.50;;;0.50;;
13991;SDS011;7070;53.586;9.692;2022-10-03T19:29:19;0.40;;;0.40;;
13991;SDS011;7070;53.586;9.692;2022-10-03T19:31:54;0.50;;;0.50;;
13991;SDS011;7070;53.586;9.692;2022-10-03T19:34:27;0.50;;;0.50;;
13991;SDS011;7070;53.586;9.692;2022-10-03T19:37:00;0.60;;;0.60;;